Saint George's, Canada
Current Conditions -  °F | °C
As of 11:00 PM on Tuesday 21 Oct 2014 (Local Time) from CYJT Reporting Station
Overcast Overcast  
Wind Chill: 41°   Ceiling: 2500
Heat Index: 45°   Visibility: 15mi
Dew Point: 37°   Wind: 7mph
Humidity: 76%   Direction: 300°WNW
Pressure: 30.26"   Gusts: NA
Location:  48.43°N, 58.5°W
Report Text: CYJT 220100Z 30006KT 15SM OVC025 07/03 A3026 RMK SC8 SLP247
Loading
Personal Weather Stations






























Interactive Weather Map New forecast layout! Learn more

10-Day Weather Forecast

Advertisements
Track Severe Weather on mobile